TimeCDT,TemperatureF,Dew PointF,Humidity,Sea Level PressureIn,VisibilityMPH,Wind Direction,Wind SpeedMPH,Gust SpeedMPH,PrecipitationIn,Events,Conditions,WindDirDegrees,DateUTC
12:41 AM,57.2,35.6,44,30.24,10.0,NNW,4.6,-,N/A,,Clear,330,2012-10-24 05:41:00
3:23 AM,48.2,33.8,58,30.23,10.0,SW,4.6,-,N/A,,Clear,230,2012-10-24 08:23:00
4:00 AM,50.0,33.8,54,30.22,10.0,SW,5.8,-,N/A,,Clear,230,2012-10-24 09:00:00
4:49 AM,50.0,35.6,58,30.22,10.0,SSW,3.5,-,N/A,,Clear,200,2012-10-24 09:49:00
5:49 AM,50.0,37.4,62,30.23,10.0,South,4.6,-,N/A,,Clear,180,2012-10-24 10:49:00
6:48 AM,55.4,42.8,63,30.24,10.0,South,11.5,-,N/A,,Clear,180,2012-10-24 11:48:00
7:43 AM,48.2,39.2,71,30.25,10.0,SSW,6.9,-,N/A,,Clear,210,2012-10-24 12:43:00
8:40 AM,53.6,44.6,72,30.26,10.0,Calm,Calm,-,N/A,,Clear,0,2012-10-24 13:40:00
10:40 AM,68.0,44.6,43,30.28,10.0,SSW,5.8,-,N/A,,Clear,210,2012-10-24 15:40:00
11:41 AM,73.4,37.4,27,30.28,10.0,West,5.8,-,N/A,,Clear,260,2012-10-24 16:41:00
1:52 PM,78.8,35.6,21,30.21,10.0,NE,17.3,34.5,N/A,,Partly Cloudy,50,2012-10-24 18:52:00
2:46 PM,78.8,37.4,23,30.18,10.0,North,11.5,-,N/A,,Clear,350,2012-10-24 19:46:00
3:43 PM,80.6,37.4,21,30.16,10.0,NNW,6.9,-,N/A,,Clear,340,2012-10-24 20:43:00
4:52 PM,78.8,37.4,23,30.15,10.0,East,13.8,-,N/A,,Clear,80,2012-10-24 21:52:00
7:13 PM,73.4,35.6,25,30.16,10.0,East,9.2,-,N/A,,Clear,80,2012-10-25 00:13:00
8:02 PM,69.8,35.6,28,30.17,10.0,East,9.2,-,N/A,,Clear,100,2012-10-25 01:02:00
8:48 PM,66.2,35.6,32,30.18,10.0,East,9.2,-,N/A,,Clear,100,2012-10-25 01:48:00
9:42 PM,66.2,35.6,32,30.18,10.0,ESE,6.9,-,N/A,,Clear,110,2012-10-25 02:42:00
10:43 PM,64.4,33.8,32,30.19,10.0,ESE,4.6,-,N/A,,Clear,120,2012-10-25 03:43:00
11:42 PM,62.6,42.8,48,30.18,10.0,ESE,6.9,-,N/A,,Clear,110,2012-10-25 04:42:00